sensor_id;sensor_type;location;lat;lon;timestamp;P1;durP1;ratioP1;P2;durP2;ratioP2
6280;SDS011;3173;48.204;11.612;2022-07-22T00:02:23;18.83;;;15.20;;
6280;SDS011;3173;48.204;11.612;2022-07-22T00:04:50;16.80;;;13.50;;
6280;SDS011;3173;48.204;11.612;2022-07-22T00:07:15;17.67;;;15.23;;
6280;SDS011;3173;48.204;11.612;2022-07-22T00:09:41;22.80;;;16.07;;
6280;SDS011;3173;48.204;11.612;2022-07-22T00:12:08;18.03;;;15.80;;
6280;SDS011;3173;48.204;11.612;2022-07-22T00:14:34;21.60;;;15.20;;
6280;SDS011;3173;48.204;11.612;2022-07-22T00:17:00;18.57;;;15.93;;
6280;SDS011;3173;48.204;11.612;2022-07-22T00:19:26;20.23;;;16.00;;
6280;SDS011;3173;48.204;11.612;2022-07-22T00:21:52;19.57;;;15.57;;
6280;SDS011;3173;48.204;11.612;2022-07-22T00:24:18;17.73;;;15.07;;
6280;SDS011;3173;48.204;11.612;2022-07-22T00:26:44;16.27;;;14.30;;
6280;SDS011;3173;48.204;11.612;2022-07-22T00:29:10;19.20;;;15.67;;
6280;SDS011;3173;48.204;11.612;2022-07-22T00:31:36;21.40;;;15.40;;
6280;SDS011;3173;48.204;11.612;2022-07-22T00:34:02;18.43;;;15.30;;
6280;SDS011;3173;48.204;11.612;2022-07-22T00:36:31;18.60;;;14.80;;
6280;SDS011;3173;48.204;11.612;2022-07-22T00:38:57;18.77;;;15.23;;
6280;SDS011;3173;48.204;11.612;2022-07-22T00:41:23;17.13;;;15.20;;
6280;SDS011;3173;48.204;11.612;2022-07-22T00:46:18;20.90;;;15.73;;
6280;SDS011;3173;48.204;11.612;2022-07-22T00:48:44;19.40;;;15.20;;
6280;SDS011;3173;48.204;11.612;2022-07-22T00:51:10;20.23;;;15.00;;
6280;SDS011;3173;48.204;11.612;2022-07-22T00:53:36;18.60;;;13.90;;
6280;SDS011;3173;48.204;11.612;2022-07-22T00:56:03;20.10;;;13.27;;
6280;SDS011;3173;48.204;11.612;2022-07-22T00:58:29;17.87;;;14.20;;
6280;SDS011;3173;48.204;11.612;2022-07-22T01:00:55;18.93;;;14.27;;
6280;SDS011;3173;48.204;11.612;2022-07-22T01:03:21;20.30;;;14.70;;
6280;SDS011;3173;48.204;11.612;2022-07-22T01:05:47;21.80;;;14.60;;
6280;SDS011;3173;48.204;11.612;2022-07-22T01:08:13;19.43;;;14.70;;
6280;SDS011;3173;48.204;11.612;2022-07-22T01:10:39;16.20;;;13.17;;
6280;SDS011;3173;48.204;11.612;2022-07-22T01:13:05;18.30;;;14.27;;
6280;SDS011;3173;48.204;11.612;2022-07-22T01:15:31;18.10;;;14.27;;
6280;SDS011;3173;48.204;11.612;2022-07-22T01:17:58;18.73;;;14.20;;
6280;SDS011;3173;48.204;11.612;2022-07-22T01:20:24;20.23;;;14.13;;
6280;SDS011;3173;48.204;11.612;2022-07-22T01:22:50;18.23;;;14.70;;
6280;SDS011;3173;48.204;11.612;2022-07-22T01:25:16;20.63;;;14.30;;
6280;SDS011;3173;48.204;11.612;2022-07-22T01:27:42;15.70;;;13.93;;
6280;SDS011;3173;48.204;11.612;2022-07-22T01:30:09;18.80;;;13.80;;
6280;SDS011;3173;48.204;11.612;2022-07-22T01:32:35;18.47;;;13.90;;
6280;SDS011;3173;48.204;11.612;2022-07-22T01:35:01;16.60;;;13.80;;
6280;SDS011;3173;48.204;11.612;2022-07-22T01:37:27;17.13;;;14.80;;
6280;SDS011;3173;48.204;11.612;2022-07-22T01:39:52;17.73;;;14.57;;
6280;SDS011;3173;48.204;11.612;2022-07-22T01:42:18;16.90;;;13.60;;
6280;SDS011;3173;48.204;11.612;2022-07-22T01:44:44;16.63;;;13.80;;
6280;SDS011;3173;48.204;11.612;2022-07-22T01:47:10;16.27;;;13.40;;
6280;SDS011;3173;48.204;11.612;2022-07-22T01:49:36;18.67;;;14.10;;
6280;SDS011;3173;48.204;11.612;2022-07-22T01:52:03;16.77;;;13.60;;
6280;SDS011;3173;48.204;11.612;2022-07-22T01:54:29;16.40;;;14.20;;
6280;SDS011;3173;48.204;11.612;2022-07-22T01:56:55;17.57;;;13.93;;
6280;SDS011;3173;48.204;11.612;2022-07-22T01:59:21;20.20;;;14.97;;
6280;SDS011;3173;48.204;11.612;2022-07-22T02:01:47;21.87;;;14.37;;
6280;SDS011;3173;48.204;11.612;2022-07-22T02:04:13;15.90;;;14.30;;
6280;SDS011;3173;48.204;11.612;2022-07-22T02:06:39;18.07;;;15.17;;
6280;SDS011;3173;48.204;11.612;2022-07-22T02:09:05;20.93;;;14.70;;
6280;SDS011;3173;48.204;11.612;2022-07-22T02:11:32;15.77;;;13.17;;
6280;SDS011;3173;48.204;11.612;2022-07-22T02:13:58;17.30;;;14.20;;
6280;SDS011;3173;48.204;11.612;2022-07-22T02:16:24;16.60;;;14.00;;
6280;SDS011;3173;48.204;11.612;2022-07-22T02:18:50;20.17;;;14.27;;
6280;SDS011;3173;48.204;11.612;2022-07-22T02:21:17;17.30;;;14.60;;
6280;SDS011;3173;48.204;11.612;2022-07-22T02:23:43;16.50;;;14.23;;
6280;SDS011;3173;48.204;11.612;2022-07-22T02:26:09;16.70;;;14.90;;
6280;SDS011;3173;48.204;11.612;2022-07-22T02:28:35;18.50;;;15.23;;
6280;SDS011;3173;48.204;11.612;2022-07-22T02:31:01;19.20;;;13.77;;
6280;SDS011;3173;48.204;11.612;2022-07-22T02:33:27;17.97;;;15.00;;
6280;SDS011;3173;48.204;11.612;2022-07-22T02:35:54;17.07;;;13.37;;
6280;SDS011;3173;48.204;11.612;2022-07-22T02:38:20;15.30;;;12.97;;
6280;SDS011;3173;48.204;11.612;2022-07-22T02:40:46;19.00;;;15.60;;
6280;SDS011;3173;48.204;11.612;2022-07-22T02:43:12;15.03;;;13.43;;
6280;SDS011;3173;48.204;11.612;2022-07-22T02:45:38;15.63;;;13.80;;
6280;SDS011;3173;48.204;11.612;2022-07-22T02:48:04;19.73;;;13.23;;
6280;SDS011;3173;48.204;11.612;2022-07-22T02:50:30;18.20;;;15.10;;
6280;SDS011;3173;48.204;11.612;2022-07-22T02:52:58;24.73;;;14.67;;
6280;SDS011;3173;48.204;11.612;2022-07-22T02:55:24;18.47;;;14.20;;
6280;SDS011;3173;48.204;11.612;2022-07-22T02:57:50;21.30;;;15.30;;
6280;SDS011;3173;48.204;11.612;2022-07-22T03:00:16;15.83;;;14.07;;
6280;SDS011;3173;48.204;11.612;2022-07-22T03:02:42;17.63;;;14.13;;
6280;SDS011;3173;48.204;11.612;2022-07-22T03:05:08;17.27;;;14.03;;
6280;SDS011;3173;48.204;11.612;2022-07-22T03:07:34;18.47;;;15.20;;
6280;SDS011;3173;48.204;11.612;2022-07-22T03:10:00;16.57;;;14.20;;
6280;SDS011;3173;48.204;11.612;2022-07-22T03:12:26;17.90;;;14.47;;
6280;SDS011;3173;48.204;11.612;2022-07-22T03:14:52;15.27;;;13.40;;
6280;SDS011;3173;48.204;11.612;2022-07-22T03:17:18;16.80;;;14.27;;
6280;SDS011;3173;48.204;11.612;2022-07-22T03:19:44;18.53;;;15.37;;
6280;SDS011;3173;48.204;11.612;2022-07-22T03:22:10;16.80;;;13.87;;
6280;SDS011;3173;48.204;11.612;2022-07-22T03:24:36;17.33;;;14.50;;
6280;SDS011;3173;48.204;11.612;2022-07-22T03:27:02;18.40;;;14.80;;
6280;SDS011;3173;48.204;11.612;2022-07-22T03:29:28;17.07;;;14.10;;
6280;SDS011;3173;48.204;11.612;2022-07-22T03:31:54;17.20;;;13.83;;
6280;SDS011;3173;48.204;11.612;2022-07-22T03:34:20;18.57;;;14.00;;
6280;SDS011;3173;48.204;11.612;2022-07-22T03:36:46;15.20;;;13.57;;
6280;SDS011;3173;48.204;11.612;2022-07-22T03:39:11;17.00;;;13.17;;
6280;SDS011;3173;48.204;11.612;2022-07-22T03:41:37;18.10;;;13.50;;
6280;SDS011;3173;48.204;11.612;2022-07-22T03:44:03;15.80;;;13.60;;
6280;SDS011;3173;48.204;11.612;2022-07-22T03:46:29;20.80;;;13.80;;
6280;SDS011;3173;48.204;11.612;2022-07-22T03:48:55;16.90;;;13.33;;
6280;SDS011;3173;48.204;11.612;2022-07-22T03:51:21;16.80;;;13.07;;
6280;SDS011;3173;48.204;11.612;2022-07-22T03:53:47;20.80;;;14.90;;
6280;SDS011;3173;48.204;11.612;2022-07-22T03:56:13;16.27;;;13.27;;
6280;SDS011;3173;48.204;11.612;2022-07-22T03:58:39;16.97;;;14.07;;
6280;SDS011;3173;48.204;11.612;2022-07-22T04:01:05;19.10;;;15.10;;
6280;SDS011;3173;48.204;11.612;2022-07-22T04:03:31;17.47;;;14.70;;
6280;SDS011;3173;48.204;11.612;2022-07-22T04:05:57;18.73;;;14.17;;
6280;SDS011;3173;48.204;11.612;2022-07-22T04:08:23;16.53;;;13.73;;
6280;SDS011;3173;48.204;11.612;2022-07-22T04:10:49;16.50;;;13.43;;
6280;SDS011;3173;48.204;11.612;2022-07-22T04:13:15;17.80;;;14.00;;
6280;SDS011;3173;48.204;11.612;2022-07-22T04:15:41;16.10;;;13.97;;
6280;SDS011;3173;48.204;11.612;2022-07-22T04:18:07;17.43;;;14.40;;
6280;SDS011;3173;48.204;11.612;2022-07-22T04:20:33;17.43;;;14.13;;
6280;SDS011;3173;48.204;11.612;2022-07-22T04:22:59;16.80;;;14.83;;
6280;SDS011;3173;48.204;11.612;2022-07-22T04:25:25;18.33;;;15.07;;
6280;SDS011;3173;48.204;11.612;2022-07-22T04:27:51;24.00;;;14.70;;
6280;SDS011;3173;48.204;11.612;2022-07-22T04:30:17;19.60;;;13.70;;
6280;SDS011;3173;48.204;11.612;2022-07-22T04:32:43;21.70;;;15.00;;
6280;SDS011;3173;48.204;11.612;2022-07-22T04:35:09;17.00;;;13.97;;
6280;SDS011;3173;48.204;11.612;2022-07-22T04:37:35;19.30;;;14.53;;
6280;SDS011;3173;48.204;11.612;2022-07-22T04:40:01;17.27;;;14.33;;
6280;SDS011;3173;48.204;11.612;2022-07-22T04:42:27;20.37;;;14.63;;
6280;SDS011;3173;48.204;11.612;2022-07-22T04:44:53;17.97;;;13.63;;
6280;SDS011;3173;48.204;11.612;2022-07-22T04:47:19;19.43;;;14.00;;
6280;SDS011;3173;48.204;11.612;2022-07-22T04:49:45;20.47;;;14.67;;
6280;SDS011;3173;48.204;11.612;2022-07-22T04:52:10;16.53;;;13.50;;
6280;SDS011;3173;48.204;11.612;2022-07-22T04:54:36;19.50;;;14.17;;
6280;SDS011;3173;48.204;11.612;2022-07-22T04:57:02;20.93;;;15.00;;
6280;SDS011;3173;48.204;11.612;2022-07-22T04:59:28;18.03;;;14.33;;
6280;SDS011;3173;48.204;11.612;2022-07-22T05:01:54;17.13;;;14.13;;
6280;SDS011;3173;48.204;11.612;2022-07-22T05:04:20;17.50;;;14.73;;
6280;SDS011;3173;48.204;11.612;2022-07-22T05:06:46;17.37;;;14.83;;
6280;SDS011;3173;48.204;11.612;2022-07-22T05:09:12;21.43;;;14.50;;
6280;SDS011;3173;48.204;11.612;2022-07-22T05:11:38;29.97;;;16.17;;
6280;SDS011;3173;48.204;11.612;2022-07-22T05:14:04;17.40;;;13.93;;
6280;SDS011;3173;48.204;11.612;2022-07-22T05:16:30;16.10;;;13.63;;
6280;SDS011;3173;48.204;11.612;2022-07-22T05:18:56;24.33;;;14.00;;
6280;SDS011;3173;48.204;11.612;2022-07-22T05:21:22;17.80;;;14.17;;
6280;SDS011;3173;48.204;11.612;2022-07-22T05:23:48;18.10;;;13.40;;
6280;SDS011;3173;48.204;11.612;2022-07-22T05:26:14;22.37;;;14.53;;
6280;SDS011;3173;48.204;11.612;2022-07-22T05:28:40;18.97;;;14.53;;
6280;SDS011;3173;48.204;11.612;2022-07-22T05:31:06;19.00;;;14.50;;
6280;SDS011;3173;48.204;11.612;2022-07-22T05:33:32;18.17;;;14.50;;
6280;SDS011;3173;48.204;11.612;2022-07-22T05:35:58;20.47;;;15.00;;
6280;SDS011;3173;48.204;11.612;2022-07-22T05:38:24;25.50;;;15.60;;
6280;SDS011;3173;48.204;11.612;2022-07-22T05:40:50;20.90;;;14.03;;
6280;SDS011;3173;48.204;11.612;2022-07-22T05:43:16;24.43;;;16.67;;
6280;SDS011;3173;48.204;11.612;2022-07-22T05:45:42;21.47;;;15.20;;
6280;SDS011;3173;48.204;11.612;2022-07-22T05:48:08;16.43;;;14.50;;
6280;SDS011;3173;48.204;11.612;2022-07-22T05:50:35;19.10;;;14.13;;
6280;SDS011;3173;48.204;11.612;2022-07-22T05:53:01;23.23;;;14.50;;
6280;SDS011;3173;48.204;11.612;2022-07-22T05:55:27;17.60;;;14.30;;
6280;SDS011;3173;48.204;11.612;2022-07-22T05:57:53;17.43;;;13.77;;
6280;SDS011;3173;48.204;11.612;2022-07-22T06:00:19;17.10;;;13.17;;
6280;SDS011;3173;48.204;11.612;2022-07-22T06:02:45;17.90;;;13.43;;
6280;SDS011;3173;48.204;11.612;2022-07-22T06:05:11;17.70;;;12.80;;
6280;SDS011;3173;48.204;11.612;2022-07-22T06:07:37;16.03;;;12.60;;
6280;SDS011;3173;48.204;11.612;2022-07-22T06:10:03;20.60;;;13.60;;
6280;SDS011;3173;48.204;11.612;2022-07-22T06:12:29;25.73;;;14.93;;
6280;SDS011;3173;48.204;11.612;2022-07-22T06:14:55;15.30;;;12.07;;
6280;SDS011;3173;48.204;11.612;2022-07-22T06:17:21;18.37;;;13.77;;
6280;SDS011;3173;48.204;11.612;2022-07-22T06:19:47;17.27;;;12.83;;
6280;SDS011;3173;48.204;11.612;2022-07-22T06:22:13;17.80;;;12.17;;
6280;SDS011;3173;48.204;11.612;2022-07-22T06:24:39;16.17;;;11.97;;
6280;SDS011;3173;48.204;11.612;2022-07-22T06:27:05;17.50;;;13.00;;
6280;SDS011;3173;48.204;11.612;2022-07-22T06:29:31;16.67;;;13.00;;
6280;SDS011;3173;48.204;11.612;2022-07-22T06:31:56;16.73;;;12.43;;
6280;SDS011;3173;48.204;11.612;2022-07-22T06:34:23;17.03;;;12.70;;
6280;SDS011;3173;48.204;11.612;2022-07-22T06:48:59;18.50;;;13.47;;
6280;SDS011;3173;48.204;11.612;2022-07-22T06:51:25;18.13;;;12.20;;
6280;SDS011;3173;48.204;11.612;2022-07-22T06:53:51;22.43;;;15.50;;
6280;SDS011;3173;48.204;11.612;2022-07-22T06:56:17;15.23;;;11.60;;
6280;SDS011;3173;48.204;11.612;2022-07-22T06:58:43;17.80;;;11.63;;
6280;SDS011;3173;48.204;11.612;2022-07-22T07:01:09;20.53;;;12.47;;
6280;SDS011;3173;48.204;11.612;2022-07-22T07:06:39;19.73;;;12.07;;
6280;SDS011;3173;48.204;11.612;2022-07-22T07:12:24;13.37;;;10.00;;
6280;SDS011;3173;48.204;11.612;2022-07-22T07:14:50;12.40;;;11.00;;
6280;SDS011;3173;48.204;11.612;2022-07-22T07:17:16;12.70;;;10.00;;
6280;SDS011;3173;48.204;11.612;2022-07-22T07:19:42;12.57;;;9.80;;
6280;SDS011;3173;48.204;11.612;2022-07-22T07:22:08;11.37;;;10.23;;
6280;SDS011;3173;48.204;11.612;2022-07-22T07:24:34;16.60;;;9.27;;
6280;SDS011;3173;48.204;11.612;2022-07-22T07:27:00;11.50;;;8.90;;
6280;SDS011;3173;48.204;11.612;2022-07-22T07:29:26;19.07;;;9.27;;
6280;SDS011;3173;48.204;11.612;2022-07-22T07:31:52;11.53;;;9.10;;
6280;SDS011;3173;48.204;11.612;2022-07-22T07:34:18;13.07;;;9.17;;
6280;SDS011;3173;48.204;11.612;2022-07-22T07:36:44;14.43;;;9.77;;
6280;SDS011;3173;48.204;11.612;2022-07-22T07:39:10;14.20;;;9.13;;
6280;SDS011;3173;48.204;11.612;2022-07-22T07:41:36;11.93;;;9.30;;
6280;SDS011;3173;48.204;11.612;2022-07-22T07:44:01;9.27;;;8.27;;
6280;SDS011;3173;48.204;11.612;2022-07-22T07:46:27;11.20;;;8.97;;
6280;SDS011;3173;48.204;11.612;2022-07-22T07:48:53;14.97;;;9.10;;
6280;SDS011;3173;48.204;11.612;2022-07-22T07:51:19;11.60;;;8.47;;
6280;SDS011;3173;48.204;11.612;2022-07-22T07:53:45;9.23;;;8.30;;
6280;SDS011;3173;48.204;11.612;2022-07-22T07:56:11;10.80;;;8.87;;
6280;SDS011;3173;48.204;11.612;2022-07-22T07:58:37;11.23;;;9.23;;
6280;SDS011;3173;48.204;11.612;2022-07-22T08:01:04;9.67;;;8.30;;
6280;SDS011;3173;48.204;11.612;2022-07-22T08:03:30;11.33;;;8.90;;
6280;SDS011;3173;48.204;11.612;2022-07-22T08:05:56;13.20;;;8.63;;
6280;SDS011;3173;48.204;11.612;2022-07-22T08:08:24;11.17;;;9.30;;
6280;SDS011;3173;48.204;11.612;2022-07-22T08:10:50;9.97;;;7.77;;
6280;SDS011;3173;48.204;11.612;2022-07-22T08:13:17;17.03;;;8.67;;
6280;SDS011;3173;48.204;11.612;2022-07-22T08:15:42;9.73;;;8.00;;
6280;SDS011;3173;48.204;11.612;2022-07-22T08:18:08;12.60;;;8.70;;
6280;SDS011;3173;48.204;11.612;2022-07-22T08:20:34;10.60;;;8.13;;
6280;SDS011;3173;48.204;11.612;2022-07-22T08:23:00;12.23;;;8.00;;
6280;SDS011;3173;48.204;11.612;2022-07-22T08:25:26;8.60;;;7.10;;
6280;SDS011;3173;48.204;11.612;2022-07-22T08:27:52;10.97;;;8.00;;
6280;SDS011;3173;48.204;11.612;2022-07-22T08:30:18;12.13;;;8.70;;
6280;SDS011;3173;48.204;11.612;2022-07-22T08:32:45;12.17;;;8.50;;
6280;SDS011;3173;48.204;11.612;2022-07-22T08:35:11;10.47;;;8.77;;
6280;SDS011;3173;48.204;11.612;2022-07-22T08:37:37;10.20;;;8.20;;
6280;SDS011;3173;48.204;11.612;2022-07-22T08:40:03;11.50;;;9.10;;
6280;SDS011;3173;48.204;11.612;2022-07-22T08:42:31;11.83;;;8.70;;
6280;SDS011;3173;48.204;11.612;2022-07-22T08:44:57;12.13;;;9.27;;
6280;SDS011;3173;48.204;11.612;2022-07-22T08:47:23;12.33;;;8.40;;
6280;SDS011;3173;48.204;11.612;2022-07-22T08:49:49;13.43;;;9.17;;
6280;SDS011;3173;48.204;11.612;2022-07-22T08:52:15;13.00;;;9.18;;
6280;SDS011;3173;48.204;11.612;2022-07-22T08:54:41;11.57;;;8.43;;
6280;SDS011;3173;48.204;11.612;2022-07-22T08:57:07;13.80;;;8.83;;
6280;SDS011;3173;48.204;11.612;2022-07-22T08:59:33;13.40;;;8.73;;
6280;SDS011;3173;48.204;11.612;2022-07-22T09:02:13;10.90;;;8.57;;
6280;SDS011;3173;48.204;11.612;2022-07-22T09:04:56;14.17;;;9.00;;
6280;SDS011;3173;48.204;11.612;2022-07-22T09:07:26;13.60;;;9.83;;
6280;SDS011;3173;48.204;11.612;2022-07-22T09:09:52;11.10;;;8.17;;
6280;SDS011;3173;48.204;11.612;2022-07-22T09:12:18;11.37;;;7.87;;
6280;SDS011;3173;48.204;11.612;2022-07-22T09:14:48;9.63;;;7.87;;
6280;SDS011;3173;48.204;11.612;2022-07-22T09:20:20;11.00;;;7.50;;
6280;SDS011;3173;48.204;11.612;2022-07-22T09:22:47;10.80;;;7.63;;
6280;SDS011;3173;48.204;11.612;2022-07-22T09:25:27;9.87;;;7.23;;
6280;SDS011;3173;48.204;11.612;2022-07-22T09:27:54;11.00;;;6.87;;
6280;SDS011;3173;48.204;11.612;2022-07-22T09:30:22;9.53;;;6.97;;
6280;SDS011;3173;48.204;11.612;2022-07-22T09:32:49;8.60;;;6.47;;
6280;SDS011;3173;48.204;11.612;2022-07-22T09:35:15;14.83;;;7.20;;
6280;SDS011;3173;48.204;11.612;2022-07-22T09:40:18;9.00;;;6.27;;
6280;SDS011;3173;48.204;11.612;2022-07-22T09:42:54;15.10;;;7.07;;
6280;SDS011;3173;48.204;11.612;2022-07-22T09:45:21;13.20;;;6.80;;
6280;SDS011;3173;48.204;11.612;2022-07-22T09:47:47;8.90;;;7.30;;
6280;SDS011;3173;48.204;11.612;2022-07-22T09:52:46;8.50;;;6.30;;
6280;SDS011;3173;48.204;11.612;2022-07-22T09:55:15;10.40;;;6.30;;
6280;SDS011;3173;48.204;11.612;2022-07-22T09:57:42;13.13;;;7.00;;
6280;SDS011;3173;48.204;11.612;2022-07-22T10:00:08;7.63;;;6.83;;
6280;SDS011;3173;48.204;11.612;2022-07-22T10:02:37;9.60;;;6.57;;
6280;SDS011;3173;48.204;11.612;2022-07-22T10:05:05;6.77;;;5.63;;
6280;SDS011;3173;48.204;11.612;2022-07-22T10:07:31;9.43;;;6.00;;
6280;SDS011;3173;48.204;11.612;2022-07-22T10:09:57;8.03;;;5.63;;
6280;SDS011;3173;48.204;11.612;2022-07-22T10:12:23;6.53;;;5.63;;
6280;SDS011;3173;48.204;11.612;2022-07-22T10:14:49;9.30;;;5.13;;
6280;SDS011;3173;48.204;11.612;2022-07-22T10:17:15;5.70;;;4.77;;
6280;SDS011;3173;48.204;11.612;2022-07-22T10:19:41;7.10;;;5.17;;
6280;SDS011;3173;48.204;11.612;2022-07-22T10:25:01;7.77;;;5.40;;
6280;SDS011;3173;48.204;11.612;2022-07-22T10:30:33;6.97;;;4.97;;
6280;SDS011;3173;48.204;11.612;2022-07-22T10:33:16;6.50;;;4.30;;
6280;SDS011;3173;48.204;11.612;2022-07-22T10:38:10;5.40;;;4.33;;
6280;SDS011;3173;48.204;11.612;2022-07-22T10:43:23;7.40;;;4.93;;
6280;SDS011;3173;48.204;11.612;2022-07-22T10:45:50;6.73;;;4.70;;
6280;SDS011;3173;48.204;11.612;2022-07-22T10:48:21;5.60;;;5.10;;
6280;SDS011;3173;48.204;11.612;2022-07-22T10:50:48;5.90;;;4.87;;
6280;SDS011;3173;48.204;11.612;2022-07-22T10:56:05;8.70;;;5.17;;
6280;SDS011;3173;48.204;11.612;2022-07-22T11:00:58;7.77;;;5.23;;
6280;SDS011;3173;48.204;11.612;2022-07-22T11:03:26;5.03;;;4.53;;
6280;SDS011;3173;48.204;11.612;2022-07-22T11:05:54;7.87;;;4.93;;
6280;SDS011;3173;48.204;11.612;2022-07-22T11:08:21;7.20;;;4.47;;
6280;SDS011;3173;48.204;11.612;2022-07-22T11:10:47;6.00;;;5.40;;
6280;SDS011;3173;48.204;11.612;2022-07-22T11:16:12;6.63;;;5.13;;
6280;SDS011;3173;48.204;11.612;2022-07-22T11:21:11;7.77;;;5.40;;
6280;SDS011;3173;48.204;11.612;2022-07-22T11:23:39;8.47;;;6.30;;
6280;SDS011;3173;48.204;11.612;2022-07-22T11:26:06;6.33;;;5.10;;
6280;SDS011;3173;48.204;11.612;2022-07-22T11:28:38;7.40;;;5.20;;
6280;SDS011;3173;48.204;11.612;2022-07-22T11:31:05;7.70;;;5.73;;
6280;SDS011;3173;48.204;11.612;2022-07-22T11:33:31;5.07;;;4.57;;
6280;SDS011;3173;48.204;11.612;2022-07-22T11:36:07;8.40;;;5.50;;
6280;SDS011;3173;48.204;11.612;2022-07-22T11:38:40;6.33;;;5.00;;
6280;SDS011;3173;48.204;11.612;2022-07-22T11:41:06;17.60;;;5.63;;
6280;SDS011;3173;48.204;11.612;2022-07-22T11:43:44;7.13;;;5.40;;
6280;SDS011;3173;48.204;11.612;2022-07-22T11:46:11;9.30;;;5.47;;
6280;SDS011;3173;48.204;11.612;2022-07-22T11:48:37;7.20;;;4.90;;
6280;SDS011;3173;48.204;11.612;2022-07-22T11:51:07;10.53;;;5.10;;
6280;SDS011;3173;48.204;11.612;2022-07-22T11:53:35;9.93;;;5.80;;
6280;SDS011;3173;48.204;11.612;2022-07-22T11:56:02;9.87;;;5.50;;
6280;SDS011;3173;48.204;11.612;2022-07-22T11:58:44;5.63;;;4.77;;
6280;SDS011;3173;48.204;11.612;2022-07-22T12:01:12;7.03;;;5.07;;
6280;SDS011;3173;48.204;11.612;2022-07-22T12:03:39;6.57;;;5.50;;
6280;SDS011;3173;48.204;11.612;2022-07-22T12:06:06;7.27;;;5.53;;
6280;SDS011;3173;48.204;11.612;2022-07-22T12:08:33;8.90;;;5.50;;
6280;SDS011;3173;48.204;11.612;2022-07-22T12:10:59;5.73;;;5.13;;
6280;SDS011;3173;48.204;11.612;2022-07-22T12:13:29;7.03;;;5.40;;
6280;SDS011;3173;48.204;11.612;2022-07-22T12:15:55;7.43;;;5.43;;
6280;SDS011;3173;48.204;11.612;2022-07-22T12:18:23;10.43;;;5.40;;
6280;SDS011;3173;48.204;11.612;2022-07-22T12:20:49;7.70;;;5.40;;
6280;SDS011;3173;48.204;11.612;2022-07-22T12:23:15;6.17;;;5.57;;
6280;SDS011;3173;48.204;11.612;2022-07-22T12:25:51;9.37;;;5.10;;
6280;SDS011;3173;48.204;11.612;2022-07-22T12:28:18;6.80;;;5.47;;
6280;SDS011;3173;48.204;11.612;2022-07-22T12:30:44;8.17;;;5.60;;
6280;SDS011;3173;48.204;11.612;2022-07-22T12:33:16;6.77;;;5.23;;
6280;SDS011;3173;48.204;11.612;2022-07-22T12:35:43;6.40;;;5.33;;
6280;SDS011;3173;48.204;11.612;2022-07-22T12:38:10;6.47;;;5.27;;
6280;SDS011;3173;48.204;11.612;2022-07-22T12:40:36;6.10;;;5.27;;
6280;SDS011;3173;48.204;11.612;2022-07-22T12:43:04;5.70;;;5.20;;
6280;SDS011;3173;48.204;11.612;2022-07-22T12:45:31;5.47;;;4.90;;
6280;SDS011;3173;48.204;11.612;2022-07-22T12:48:04;6.20;;;4.73;;
6280;SDS011;3173;48.204;11.612;2022-07-22T12:55:35;11.00;;;5.87;;
6280;SDS011;3173;48.204;11.612;2022-07-22T12:58:01;5.70;;;5.20;;
6280;SDS011;3173;48.204;11.612;2022-07-22T13:00:30;6.20;;;5.13;;
6280;SDS011;3173;48.204;11.612;2022-07-22T13:02:56;7.93;;;5.50;;
6280;SDS011;3173;48.204;11.612;2022-07-22T13:05:23;8.83;;;5.77;;
6280;SDS011;3173;48.204;11.612;2022-07-22T13:07:49;13.70;;;5.20;;
6280;SDS011;3173;48.204;11.612;2022-07-22T13:10:15;9.70;;;5.17;;
6280;SDS011;3173;48.204;11.612;2022-07-22T13:12:41;6.20;;;5.60;;
6280;SDS011;3173;48.204;11.612;2022-07-22T13:15:08;10.73;;;5.30;;
6280;SDS011;3173;48.204;11.612;2022-07-22T13:17:34;6.30;;;5.70;;
6280;SDS011;3173;48.204;11.612;2022-07-22T13:20:01;6.50;;;5.43;;
6280;SDS011;3173;48.204;11.612;2022-07-22T13:22:27;5.80;;;5.20;;
6280;SDS011;3173;48.204;11.612;2022-07-22T13:24:53;6.93;;;5.67;;
6280;SDS011;3173;48.204;11.612;2022-07-22T13:27:19;7.97;;;4.80;;
6280;SDS011;3173;48.204;11.612;2022-07-22T13:29:45;7.67;;;5.30;;
6280;SDS011;3173;48.204;11.612;2022-07-22T13:32:10;6.23;;;5.50;;
6280;SDS011;3173;48.204;11.612;2022-07-22T13:34:36;5.70;;;5.20;;
6280;SDS011;3173;48.204;11.612;2022-07-22T13:37:02;6.87;;;5.57;;
6280;SDS011;3173;48.204;11.612;2022-07-22T13:39:28;9.00;;;5.33;;
6280;SDS011;3173;48.204;11.612;2022-07-22T13:41:54;6.47;;;5.83;;
6280;SDS011;3173;48.204;11.612;2022-07-22T13:44:20;7.20;;;5.97;;
6280;SDS011;3173;48.204;11.612;2022-07-22T13:46:46;7.97;;;5.63;;
6280;SDS011;3173;48.204;11.612;2022-07-22T13:49:13;5.97;;;5.37;;
6280;SDS011;3173;48.204;11.612;2022-07-22T13:51:39;8.90;;;5.50;;
6280;SDS011;3173;48.204;11.612;2022-07-22T13:54:06;6.67;;;5.67;;
6280;SDS011;3173;48.204;11.612;2022-07-22T13:56:32;9.93;;;5.37;;
6280;SDS011;3173;48.204;11.612;2022-07-22T13:58:58;8.00;;;5.57;;
6280;SDS011;3173;48.204;11.612;2022-07-22T14:01:25;8.93;;;5.33;;
6280;SDS011;3173;48.204;11.612;2022-07-22T14:03:51;6.13;;;5.53;;
6280;SDS011;3173;48.204;11.612;2022-07-22T14:06:17;6.53;;;5.90;;
6280;SDS011;3173;48.204;11.612;2022-07-22T14:08:43;9.03;;;5.80;;
6280;SDS011;3173;48.204;11.612;2022-07-22T14:11:09;9.53;;;6.10;;
6280;SDS011;3173;48.204;11.612;2022-07-22T14:13:35;7.10;;;5.20;;
6280;SDS011;3173;48.204;11.612;2022-07-22T14:16:01;12.07;;;5.97;;
6280;SDS011;3173;48.204;11.612;2022-07-22T14:19:07;8.00;;;5.97;;
6280;SDS011;3173;48.204;11.612;2022-07-22T14:21:34;6.60;;;5.30;;
6280;SDS011;3173;48.204;11.612;2022-07-22T14:24:00;6.27;;;5.27;;
6280;SDS011;3173;48.204;11.612;2022-07-22T14:26:27;6.67;;;5.30;;
6280;SDS011;3173;48.204;11.612;2022-07-22T14:28:53;5.90;;;5.30;;
6280;SDS011;3173;48.204;11.612;2022-07-22T14:31:19;6.03;;;5.27;;
6280;SDS011;3173;48.204;11.612;2022-07-22T14:33:45;6.30;;;5.73;;
6280;SDS011;3173;48.204;11.612;2022-07-22T14:36:11;7.57;;;6.10;;
6280;SDS011;3173;48.204;11.612;2022-07-22T14:38:37;6.50;;;5.07;;
6280;SDS011;3173;48.204;11.612;2022-07-22T14:41:03;10.40;;;5.90;;
6280;SDS011;3173;48.204;11.612;2022-07-22T14:43:29;7.67;;;4.83;;
6280;SDS011;3173;48.204;11.612;2022-07-22T14:45:55;7.63;;;5.07;;
6280;SDS011;3173;48.204;11.612;2022-07-22T14:48:21;7.73;;;5.57;;
6280;SDS011;3173;48.204;11.612;2022-07-22T14:50:47;8.30;;;5.77;;
6280;SDS011;3173;48.204;11.612;2022-07-22T14:53:13;6.67;;;5.83;;
6280;SDS011;3173;48.204;11.612;2022-07-22T14:55:39;6.70;;;5.40;;
6280;SDS011;3173;48.204;11.612;2022-07-22T14:58:05;5.63;;;5.10;;
6280;SDS011;3173;48.204;11.612;2022-07-22T15:00:31;5.90;;;4.90;;
6280;SDS011;3173;48.204;11.612;2022-07-22T15:02:57;6.70;;;5.40;;
6280;SDS011;3173;48.204;11.612;2022-07-22T15:05:24;6.50;;;5.80;;
6280;SDS011;3173;48.204;11.612;2022-07-22T15:07:50;12.87;;;5.63;;
6280;SDS011;3173;48.204;11.612;2022-07-22T15:10:16;8.83;;;6.40;;
6280;SDS011;3173;48.204;11.612;2022-07-22T15:12:42;9.00;;;5.83;;
6280;SDS011;3173;48.204;11.612;2022-07-22T15:15:08;8.33;;;4.97;;
6280;SDS011;3173;48.204;11.612;2022-07-22T15:17:35;10.83;;;5.87;;
6280;SDS011;3173;48.204;11.612;2022-07-22T15:20:02;6.90;;;5.67;;
6280;SDS011;3173;48.204;11.612;2022-07-22T15:22:28;6.60;;;5.43;;
6280;SDS011;3173;48.204;11.612;2022-07-22T15:24:55;7.13;;;5.50;;
6280;SDS011;3173;48.204;11.612;2022-07-22T15:27:21;7.10;;;5.63;;
6280;SDS011;3173;48.204;11.612;2022-07-22T15:29:47;8.33;;;5.87;;
6280;SDS011;3173;48.204;11.612;2022-07-22T15:32:16;8.77;;;5.70;;
6280;SDS011;3173;48.204;11.612;2022-07-22T15:34:42;11.27;;;6.37;;
6280;SDS011;3173;48.204;11.612;2022-07-22T15:37:08;9.00;;;6.17;;
6280;SDS011;3173;48.204;11.612;2022-07-22T15:39:34;10.87;;;5.73;;